Time;durP1;ratioP1;P1;durP2;ratioP2;P2;SDS_P1;SDS_P2;PMS_P1;PMS_P2;Temp;Humidity;BMP_temperature;BMP_pressure;BME280_temperature;BME280_humidity;BME280_pressure;Samples;Min_cycle;Max_cycle;Signal;HPM_P1;HPM_P2
2024/02/14 00:01:48;;;;;;;5.47;3.60;;;;;;;8.80;75.99;99006.66;6112622;23;20001;-96
2024/02/14 00:04:14;;;;;;;4.13;3.55;;;;;;;8.88;75.65;99008.81;6112842;23;20099;-96
2024/02/14 00:06:40;;;;;;;4.88;3.30;;;;;;;8.89;74.85;99009.63;6112392;23;20356;-95
2024/02/14 00:09:06;;;;;;;6.32;3.17;;;;;;;8.96;74.41;99010.16;6113067;23;19997;-96
2024/02/14 00:11:32;;;;;;;4.55;3.28;;;;;;;8.97;74.45;98994.88;6114517;23;20400;-96
2024/02/14 00:13:58;;;;;;;5.10;3.35;;;;;;;9.16;74.14;99030.88;6114899;23;20008;-96
2024/02/14 00:16:24;;;;;;;5.30;3.42;;;;;;;8.95;74.25;99003.19;6115915;23;20178;-96
2024/02/14 00:18:50;;;;;;;4.60;3.42;;;;;;;8.99;74.10;99003.47;6113883;23;19997;-96
2024/02/14 00:21:16;;;;;;;4.68;3.72;;;;;;;9.04;74.04;99011.50;6114009;23;20031;-96
2024/02/14 00:23:42;;;;;;;4.10;3.33;;;;;;;8.89;74.49;99010.41;6114327;23;20415;-96
2024/02/14 00:26:07;;;;;;;3.78;3.38;;;;;;;8.93;73.97;99013.38;6114472;23;20008;-96
2024/02/14 00:28:33;;;;;;;4.50;3.17;;;;;;;8.84;74.32;99012.28;6114262;23;20348;-96
2024/02/14 00:30:59;;;;;;;5.65;3.10;;;;;;;8.80;74.60;99017.41;6114584;23;20060;-96
2024/02/14 00:33:24;;;;;;;5.32;3.50;;;;;;;8.92;74.12;99032.44;6113607;23;20459;-96
2024/02/14 00:35:50;;;;;;;4.03;3.35;;;;;;;8.78;74.64;99014.16;6114378;23;20079;-96
2024/02/14 00:38:16;;;;;;;5.70;4.30;;;;;;;8.70;74.88;99012.78;6113942;23;19997;-96
2024/02/14 00:40:41;;;;;;;4.47;3.42;;;;;;;8.62;76.23;99012.50;6113753;23;20001;-96
2024/02/14 00:43:07;;;;;;;4.28;3.67;;;;;;;8.72;76.75;99038.59;6113055;23;19997;-96
2024/02/14 00:45:32;;;;;;;4.18;3.50;;;;;;;8.67;76.24;99015.19;6114575;23;20039;-96
2024/02/14 00:51:56;;;;;;;4.63;3.45;;;;;;;8.79;76.32;99042.59;6178279;23;20031;-96
2024/02/14 01:02:04;;;;;;;4.87;3.13;;;;;;;8.57;76.26;99029.41;6180831;23;20019;-96
2024/02/14 01:04:29;;;;;;;4.50;3.35;;;;;;;8.65;76.25;99036.94;6100261;23;20001;-96
2024/02/14 01:06:55;;;;;;;4.43;3.55;;;;;;;8.59;76.28;99029.97;6108339;23;20156;-96
2024/02/14 01:09:21;;;;;;;4.40;3.80;;;;;;;8.61;76.78;99046.59;6107956;23;20009;-96
2024/02/14 01:11:48;;;;;;;4.50;3.33;;;;;;;8.57;77.43;99052.72;6106857;23;20330;-96
2024/02/14 01:14:14;;;;;;;3.85;3.45;;;;;;;8.56;77.26;99041.19;6106720;23;20036;-96
2024/02/14 01:16:43;;;;;;;4.63;3.78;;;;;;;8.58;77.06;99049.78;6107250;23;20032;-96
2024/02/14 01:19:10;;;;;;;4.68;3.53;;;;;;;8.67;76.45;99058.97;6108251;23;20001;-96
2024/02/14 01:21:35;;;;;;;3.97;3.58;;;;;;;8.61;78.15;99068.06;6132393;23;20001;-96
2024/02/14 01:24:01;;;;;;;5.03;3.47;;;;;;;8.41;78.01;99044.63;6107573;23;20009;-96
2024/02/14 01:26:26;;;;;;;4.80;3.80;;;;;;;8.49;77.70;99046.81;6132669;23;19997;-96
2024/02/14 01:28:52;;;;;;;5.35;4.45;;;;;;;8.55;77.33;99050.34;6113742;23;20005;-96
2024/02/14 01:31:18;;;;;;;6.47;3.92;;;;;;;8.57;77.15;99050.88;6112153;23;20001;-96
2024/02/14 01:33:45;;;;;;;5.40;4.03;;;;;;;8.45;77.32;99061.81;6112037;23;19996;-96
2024/02/14 01:36:11;;;;;;;5.47;3.40;;;;;;;8.38;78.08;99052.38;6138232;23;20321;-96
2024/02/14 01:38:36;;;;;;;3.80;2.80;;;;;;;8.63;76.91;99073.16;6136991;23;20059;-96
2024/02/14 01:41:05;;;;;;;3.95;3.25;;;;;;;8.58;76.74;99060.53;6113489;23;20020;-96
2024/02/14 01:43:31;;;;;;;4.30;3.30;;;;;;;8.56;77.31;99060.00;6112523;23;20016;-96
2024/02/14 01:46:03;;;;;;;4.40;4.00;;;;;;;8.52;77.99;99085.72;6112891;23;20001;-96
2024/02/14 01:48:28;;;;;;;5.40;4.38;;;;;;;8.40;77.23;99053.72;6114299;23;20001;-96
2024/02/14 01:50:54;;;;;;;4.47;3.88;;;;;;;8.56;77.09;99076.09;6113411;23;20012;-96
2024/02/14 01:53:20;;;;;;;4.90;3.55;;;;;;;8.63;76.19;99089.25;6136262;23;20020;-96
2024/02/14 01:55:45;;;;;;;5.15;3.58;;;;;;;8.52;76.40;99068.81;6113059;23;20001;-95
2024/02/14 01:58:11;;;;;;;7.25;4.05;;;;;;;8.55;77.62;99090.59;6113023;23;20088;-94
2024/02/14 02:00:37;;;;;;;7.22;3.70;;;;;;;8.57;77.40;99083.09;6112933;23;20399;-96
2024/02/14 02:03:02;;;;;;;5.07;3.83;;;;;;;8.58;76.68;99073.94;6112065;23;20001;-96
2024/02/14 02:05:28;;;;;;;5.05;4.00;;;;;;;8.52;77.22;99066.94;6137257;23;20008;-96
2024/02/14 02:07:54;;;;;;;4.93;3.35;;;;;;;8.43;77.73;99073.91;6112930;23;20005;-96
2024/02/14 02:10:22;;;;;;;5.57;3.58;;;;;;;8.37;77.67;99066.84;6113558;23;20083;-96
2024/02/14 02:12:48;;;;;;;5.03;3.70;;;;;;;8.46;77.06;99084.88;6137622;23;20099;-96
2024/02/14 02:15:14;;;;;;;5.13;4.25;;;;;;;8.46;77.29;99086.78;6113703;23;20009;-96
2024/02/14 02:17:40;;;;;;;6.32;4.60;;;;;;;8.47;77.60;99089.19;6113763;23;20031;-96
2024/02/14 02:20:08;;;;;;;5.22;4.32;;;;;;;8.42;76.99;99085.69;6113287;23;19997;-96
2024/02/14 02:22:35;;;;;;;4.88;3.50;;;;;;;8.49;76.19;99080.91;6113755;23;20002;-96
2024/02/14 02:25:02;;;;;;;4.32;3.17;;;;;;;8.49;76.17;99084.38;6115378;23;20329;-96
2024/02/14 02:27:28;;;;;;;5.05;3.40;;;;;;;8.47;77.20;99096.44;6140068;23;20084;-96
2024/02/14 02:29:53;;;;;;;3.70;3.22;;;;;;;8.45;76.29;99102.06;6116098;23;20005;-96
2024/02/14 02:32:19;;;;;;;4.82;3.80;;;;;;;8.38;77.09;99095.28;6116156;23;20537;-95
2024/02/14 02:34:45;;;;;;;3.83;3.20;;;;;;;8.40;77.39;99106.56;6139715;23;20004;-95
2024/02/14 02:37:11;;;;;;;6.05;3.88;;;;;;;8.52;77.19;99117.13;6116827;23;20007;-96
2024/02/14 02:39:37;;;;;;;5.50;3.30;;;;;;;8.29;77.09;99087.72;6140044;23;19997;-96
2024/02/14 02:42:03;;;;;;;4.88;3.30;;;;;;;8.45;76.63;99107.44;6163829;23;20029;-96
2024/02/14 02:44:29;;;;;;;4.30;3.50;;;;;;;8.43;77.52;99109.56;6139020;23;20443;-96
2024/02/14 02:46:55;;;;;;;5.53;4.15;;;;;;;8.36;76.90;99113.53;6139138;23;20001;-96
2024/02/14 02:49:21;;;;;;;5.32;4.32;;;;;;;8.49;76.47;99129.19;6139928;23;20013;-96
2024/02/14 02:51:47;;;;;;;4.15;3.35;;;;;;;8.41;76.76;99116.28;6115569;23;20001;-96
2024/02/14 02:54:13;;;;;;;4.40;3.70;;;;;;;8.37;76.41;99129.38;6138941;23;20021;-96
2024/02/14 02:56:40;;;;;;;3.70;3.28;;;;;;;8.21;76.39;99100.84;6139231;23;20017;-96
2024/02/14 02:59:13;;;;;;;3.80;2.95;;;;;;;8.25;76.47;99123.38;6115711;23;20051;-95
2024/02/14 03:01:40;;;;;;;4.60;3.00;;;;;;;8.28;76.27;99129.06;6140124;23;20005;-96
2024/02/14 03:04:05;;;;;;;4.38;2.90;;;;;;;8.19;76.34;99125.22;6115036;23;20001;-96
2024/02/14 03:06:31;;;;;;;3.15;2.40;;;;;;;8.17;76.74;99142.66;6115126;23;20356;-96
2024/02/14 03:08:57;;;;;;;3.88;2.65;;;;;;;8.29;76.56;99151.31;6115454;23;20009;-96
2024/02/14 03:11:24;;;;;;;4.00;2.70;;;;;;;8.20;76.66;99134.91;6139018;23;20351;-95
2024/02/14 03:13:50;;;;;;;3.33;2.40;;;;;;;8.19;76.42;99143.19;6139588;23;20044;-96
2024/02/14 03:16:17;;;;;;;4.57;2.67;;;;;;;8.15;75.80;99137.53;6115013;23;20001;-96
2024/02/14 03:18:43;;;;;;;2.97;2.60;;;;;;;8.29;76.57;99151.31;6139609;23;19989;-96
2024/02/14 03:21:08;;;;;;;3.30;2.47;;;;;;;8.28;75.87;99138.97;6138762;23;20043;-96
2024/02/14 03:23:34;;;;;;;5.18;2.63;;;;;;;8.30;75.65;99142.22;6114687;23;20004;-96
2024/02/14 03:25:59;;;;;;;5.15;2.45;;;;;;;8.34;75.71;99151.31;6114400;23;19997;-95
2024/02/14 03:28:25;;;;;;;3.88;2.70;;;;;;;8.42;75.74;99175.00;6138962;23;20012;-96
2024/02/14 03:30:51;;;;;;;4.00;2.65;;;;;;;8.28;76.15;99155.88;6138808;23;20000;-96
2024/02/14 03:33:17;;;;;;;2.95;2.53;;;;;;;8.17;76.09;99158.75;6114103;23;20024;-96
2024/02/14 03:35:43;;;;;;;3.90;2.83;;;;;;;8.14;76.33;99167.31;6114949;23;20008;-96
2024/02/14 03:38:09;;;;;;;3.05;2.67;;;;;;;8.21;76.00;99162.53;6113883;23;19997;-96
2024/02/14 03:40:35;;;;;;;3.95;2.65;;;;;;;8.29;75.79;99183.50;6138387;23;20012;-96
2024/02/14 03:43:02;;;;;;;3.20;2.60;;;;;;;8.19;75.55;99176.19;6138346;23;20028;-96
2024/02/14 03:45:29;;;;;;;3.60;2.80;;;;;;;8.21;76.23;99184.78;6114395;23;20558;-96
2024/02/14 03:47:56;;;;;;;3.88;2.92;;;;;;;8.16;78.27;99200.03;6138851;23;20016;-96
2024/02/14 03:50:22;;;;;;;5.60;2.70;;;;;;;8.01;78.15;99172.03;6114346;23;20001;-96
2024/02/14 03:52:48;;;;;;;4.28;2.80;;;;;;;8.02;78.75;99181.69;6137933;23;20033;-96
2024/02/14 03:55:14;;;;;;;4.57;2.75;;;;;;;8.14;78.53;99204.84;6138578;23;20044;-96
2024/02/14 03:57:40;;;;;;;3.90;2.92;;;;;;;8.03;78.65;99199.41;6113438;23;20001;-96
2024/02/14 04:00:10;;;;;;;3.92;2.70;;;;;;;8.14;78.23;99205.66;6138137;23;20005;-96
2024/02/14 04:02:35;;;;;;;3.60;2.00;;;;;;;7.95;77.78;99209.78;6138242;23;20009;-95
2024/02/14 04:05:02;;;;;;;2.13;1.80;;;;;;;7.85;76.33;99197.09;6112814;23;20005;-96
2024/02/14 04:07:29;;;;;;;2.63;2.00;;;;;;;7.85;75.86;99197.09;6138211;23;20088;-95
2024/02/14 04:09:55;;;;;;;2.30;1.75;;;;;;;7.97;75.64;99204.97;6113690;23;20033;-96
2024/02/14 04:12:20;;;;;;;2.70;1.90;;;;;;;8.01;75.26;99211.44;6113253;23;20008;-96
2024/02/14 04:14:46;;;;;;;3.20;2.08;;;;;;;7.95;75.58;99204.41;6138649;23;20062;-94
2024/02/14 04:17:12;;;;;;;3.40;2.22;;;;;;;7.98;75.78;99211.97;6113946;23;19997;-95
2024/02/14 04:19:38;;;;;;;2.55;1.95;;;;;;;8.11;75.34;99235.66;6114912;23;20001;-96
2024/02/14 04:22:04;;;;;;;2.90;2.30;;;;;;;7.96;76.05;99222.94;6112440;23;20005;-95
2024/02/14 04:24:29;;;;;;;3.75;2.58;;;;;;;8.17;75.92;99244.56;6138373;23;20490;-96
2024/02/14 04:26:56;;;;;;;2.78;2.35;;;;;;;8.07;75.79;99226.50;6137975;23;20443;-95
2024/02/14 04:29:25;;;;;;;3.08;2.40;;;;;;;8.06;77.00;99220.34;6113099;23;20008;-96
2024/02/14 04:31:52;;;;;;;4.55;2.70;;;;;;;8.15;76.59;99226.03;6112019;23;20001;-95
2024/02/14 04:34:19;;;;;;;4.47;3.10;;;;;;;8.14;77.02;99235.16;6137459;23;20076;-95
2024/02/14 04:36:45;;;;;;;3.67;2.88;;;;;;;8.27;76.30;99242.75;6112427;23;20062;-95
2024/02/14 04:39:11;;;;;;;4.30;2.92;;;;;;;8.18;76.03;99235.47;6137520;23;20001;-95
2024/02/14 04:41:43;;;;;;;3.97;3.17;;;;;;;8.13;76.45;99228.16;6112351;23;20001;-96
2024/02/14 04:44:08;;;;;;;3.80;3.25;;;;;;;8.20;76.13;99244.88;6138779;23;20001;-96
2024/02/14 04:46:50;;;;;;;3.72;3.13;;;;;;;8.06;77.16;99227.56;6112293;23;20063;-95
2024/02/14 04:49:16;;;;;;;4.78;3.72;;;;;;;8.20;76.31;99231.44;6138456;23;20009;-96
2024/02/14 04:51:41;;;;;;;4.38;3.13;;;;;;;8.30;76.66;99266.41;6136929;23;20081;-96
2024/02/14 04:54:08;;;;;;;6.13;5.10;;;;;;;8.33;77.01;99273.13;6113306;23;20053;-96
2024/02/14 04:56:36;;;;;;;14.95;9.63;;;;;;;8.23;77.71;99271.16;6138428;23;20088;-96
2024/02/14 04:59:02;;;;;;;11.75;7.88;;;;;;;8.19;77.36;99253.97;6113308;23;20015;-96
2024/02/14 05:02:07;;;;;;;11.00;7.03;;;;;;;8.27;77.19;99247.31;6116755;23;20351;-96
2024/02/14 05:04:35;;;;;;;10.52;7.10;;;;;;;8.41;77.08;99277.25;6165025;23;20003;-96
2024/02/14 05:07:01;;;;;;;7.68;6.15;;;;;;;8.46;75.83;99275.41;6117301;23;20001;-96
2024/02/14 05:09:35;;;;;;;7.60;5.65;;;;;;;8.40;75.92;99272.91;6142249;23;20067;-96
2024/02/14 05:12:00;;;;;;;6.47;5.20;;;;;;;8.51;75.88;99269.28;6123511;23;19981;-96
2024/02/14 05:14:31;;;;;;;6.40;4.95;;;;;;;8.39;76.17;99266.72;6123853;23;20420;-96
2024/02/14 05:16:57;;;;;;;4.75;3.90;;;;;;;8.61;75.56;99300.72;6148777;23;20012;-96
2024/02/14 05:19:32;;;;;;;5.05;4.07;;;;;;;8.42;75.47;99278.84;6153767;23;20076;-96
2024/02/14 05:22:02;;;;;;;6.85;5.72;;;;;;;8.40;75.83;99287.13;6118259;23;20450;-96
2024/02/14 05:24:31;;;;;;;7.53;4.70;;;;;;;8.49;75.63;99290.19;6142546;23;20008;-96
2024/02/14 05:26:57;;;;;;;6.07;4.47;;;;;;;8.51;74.61;99288.06;6117628;23;20008;-96
2024/02/14 05:29:35;;;;;;;7.22;4.68;;;;;;;8.54;74.94;99302.84;6151937;23;20017;-96
2024/02/14 05:32:17;;;;;;;5.53;4.20;;;;;;;8.45;75.68;99297.94;6130581;23;20005;-96
2024/02/14 05:34:45;;;;;;;7.40;5.00;;;;;;;8.75;76.52;99327.94;6131046;23;20016;-96
2024/02/14 05:37:31;;;;;;;7.20;5.05;;;;;;;8.56;75.46;99311.44;6178994;23;20069;-94
2024/02/14 05:39:57;;;;;;;6.45;4.70;;;;;;;8.71;75.16;99338.38;6174397;23;20008;-96
2024/02/14 05:42:24;;;;;;;8.38;4.43;;;;;;;8.67;75.95;99331.91;6154860;23;20027;-96
2024/02/14 05:44:58;;;;;;;6.78;4.70;;;;;;;8.59;76.14;99327.84;6163929;22;21372;-95
2024/02/14 05:59:27;;;;;;;9.57;6.70;;;;;;;8.50;74.89;99337.41;6232134;22;20056;-95
2024/02/14 06:04:49;;;;;;;14.80;10.57;;;;;;;8.47;75.44;99340.63;6191997;23;20021;-96
2024/02/14 06:07:17;;;;;;;7.93;6.20;;;;;;;8.51;74.37;99347.09;6135334;23;19989;-96
2024/02/14 06:29:25;;;;;;;9.55;6.13;;;;;;;8.56;76.17;99391.94;6226800;22;20095;-96
2024/02/14 06:45:29;;;;;;;11.77;8.65;;;;;;;8.97;76.85;99411.91;6218945;22;20972;-96
2024/02/14 06:48:02;;;;;;;12.50;5.18;;;;;;;8.94;76.09;99393.59;6202749;23;20001;-96
2024/02/14 06:50:29;;;;;;;;;;;;;;;8.93;75.21;99413.47;6148159;23;20092;-96
2024/02/14 06:52:59;;;;;;;100.63;54.92;;;;;;;8.89;75.13;99396.25;6148998;23;19936;-96
2024/02/14 07:01:41;;;;;;;;;;;;;;;;;;;;;
2024/02/14 07:04:25;;;;;;;8.40;4.90;;;;;;;9.15;74.48;99432.19;6209904;23;20011;-96
2024/02/14 07:06:57;;;;;;;9.48;6.47;;;;;;;9.06;74.66;99434.50;6179475;23;20056;-95
2024/02/14 07:12:47;;;;;;;9.15;6.35;;;;;;;9.17;74.30;99439.97;6141535;23;20061;-96
2024/02/14 07:15:25;;;;;;;9.35;6.35;;;;;;;9.06;75.05;99437.19;6086093;23;20460;-96
2024/02/14 07:18:20;;;;;;;5.80;4.50;;;;;;;9.06;73.96;99445.25;6089014;23;20002;-95
2024/02/14 07:21:07;;;;;;;7.20;4.97;;;;;;;9.05;73.79;99437.47;6100499;23;20116;-96
2024/02/14 07:31:24;;;;;;;5.95;3.70;;;;;;;9.17;72.82;99448.03;6213712;22;20028;-96
2024/02/14 07:37:48;;;;;;;10.27;3.53;;;;;;;9.18;73.61;99457.72;6222145;22;20025;-96
2024/02/14 07:43:22;;;;;;;4.20;3.20;;;;;;;9.25;72.95;99501.28;6197650;23;20047;-95
2024/02/14 07:45:53;;;;;;;4.00;2.25;;;;;;;9.23;72.14;99498.03;6200528;23;20005;-96
2024/02/14 07:48:43;;;;;;;;;;;;;;;9.27;72.16;99504.53;6203462;23;20016;-95
2024/02/14 07:56:02;;;;;;;;;;;;;;;;;;;;;
2024/02/14 08:02:31;;;;;;;7.32;3.15;;;;;;;8.95;72.61;99510.69;6097108;23;20053;-96
2024/02/14 08:05:25;;;;;;;7.35;3.60;;;;;;;8.84;73.05;99501.75;6079938;23;20018;-96
2024/02/14 08:07:57;;;;;;;4.80;3.17;;;;;;;8.80;72.31;99491.75;6090313;23;20007;-96
2024/02/14 08:10:23;;;;;;;4.35;2.80;;;;;;;8.83;71.82;99496.63;6115833;23;20037;-96
2024/02/14 08:12:55;;;;;;;4.35;2.80;;;;;;;8.83;71.83;99516.22;6115163;23;20099;-96
2024/02/14 08:21:46;;;;;;;3.35;2.30;;;;;;;8.74;71.34;99516.94;6192860;22;20028;-95
2024/02/14 08:25:08;;;;;;;5.07;3.15;;;;;;;8.78;71.48;99509.97;6210605;23;20023;-96
2024/02/14 08:28:10;;;;;;;4.03;2.63;;;;;;;8.78;71.27;99518.03;5977707;23;20004;-94
2024/02/14 08:41:12;;;;;;;10.65;4.30;;;;;;;8.62;73.01;99525.94;6196890;22;20025;-96
2024/02/14 08:44:14;;;;;;;3.95;2.63;;;;;;;8.54;71.52;99526.38;6147895;23;20061;-96
2024/02/14 08:46:49;;;;;;;3.67;2.88;;;;;;;8.74;71.74;99546.47;6129257;23;20005;-95
2024/02/14 08:49:27;;;;;;;5.15;3.05;;;;;;;8.76;71.94;99528.22;6148676;23;20008;-95
2024/02/14 09:02:05;;;;;;;4.72;4.20;;;;;;;8.89;72.00;99550.09;6200754;22;20079;-96
2024/02/14 09:04:27;;;;;;;5.40;3.03;;;;;;;9.03;71.95;99561.28;6175217;23;20075;-96
2024/02/14 09:07:03;;;;;;;4.55;3.40;;;;;;;9.10;72.02;99553.81;6119589;23;20064;-96
2024/02/14 09:10:06;;;;;;;7.45;3.20;;;;;;;9.02;70.79;99546.19;6147777;23;20091;-96
2024/02/14 09:12:32;;;;;;;4.65;2.80;;;;;;;9.05;69.58;99550.28;6086611;23;20050;-96
2024/02/14 09:15:01;;;;;;;5.88;2.75;;;;;;;9.07;70.59;99559.69;6118736;23;20001;-96
2024/02/14 09:17:32;;;;;;;4.65;2.75;;;;;;;9.06;70.99;99573.38;6113788;23;20329;-96
2024/02/14 09:19:58;;;;;;;4.32;3.00;;;;;;;9.12;70.33;99582.31;6114990;23;19997;-95
2024/02/14 09:29:26;;;;;;;6.32;4.22;;;;;;;8.83;71.15;99558.38;6166897;23;20244;-96
2024/02/14 09:32:50;;;;;;;23.77;16.48;;;;;;;9.08;71.57;99579.31;6001205;23;20015;-96
2024/02/14 09:35:20;;;;;;;5.65;4.13;;;;;;;8.94;72.65;99578.09;5963381;23;20488;-95
2024/02/14 09:41:43;;;;;;;;;;;;;;;9.03;72.63;99582.75;6042443;23;20104;-95
2024/02/14 09:44:14;;;;;;;6.35;3.67;;;;;;;8.83;71.98;99564.53;6042226;23;19905;-96
2024/02/14 09:46:40;;;;;;;9.85;5.00;;;;;;;8.54;72.11;99558.56;6138856;23;20001;-95
2024/02/14 09:49:08;;;;;;;6.57;4.63;;;;;;;8.87;71.03;99587.16;6112971;23;20084;-94
2024/02/14 10:24:50;;;;;;;6.75;4.63;;;;;;;8.57;72.70;99555.41;6182752;22;20072;-96
2024/02/14 10:30:16;;;;;;;7.60;5.68;;;;;;;8.77;71.17;99570.13;6246517;22;20036;-96
2024/02/14 10:32:48;;;;;;;10.38;5.60;;;;;;;8.76;73.43;99563.94;6202349;23;20020;-96
2024/02/14 10:42:50;;;;;;;7.35;5.20;;;;;;;8.93;73.52;99555.78;6227042;23;20015;-96
2024/02/14 10:45:21;;;;;;;6.95;5.32;;;;;;;8.84;73.53;99535.81;6136006;23;20049;-96
2024/02/14 10:59:29;;;;;;;7.90;5.15;;;;;;;8.58;72.25;99538.22;6229311;22;20051;-95
2024/02/14 11:02:15;;;;;;;8.02;4.18;;;;;;;8.52;72.36;99543.78;6206765;23;20016;-96
2024/02/14 11:21:51;;;;;;;7.38;4.88;;;;;;;8.42;72.94;99526.50;6216839;22;20032;-96
2024/02/14 11:37:53;;;;;;;6.65;4.50;;;;;;;8.81;70.40;99541.69;6219089;23;20099;-94
2024/02/14 11:40:22;;;;;;;7.82;6.13;;;;;;;8.78;71.57;99566.34;6169896;23;20091;-94
2024/02/14 11:43:19;;;;;;;7.20;4.18;;;;;;;8.70;69.18;99563.06;6171750;23;20000;-96
2024/02/14 11:45:54;;;;;;;7.88;5.60;;;;;;;8.75;68.26;99553.44;6173850;23;20008;-96
2024/02/14 11:48:45;;;;;;;7.55;4.72;;;;;;;8.89;69.52;99571.59;6174211;23;20092;-96
2024/02/14 11:55:06;;;;;;;5.43;4.35;;;;;;;8.94;68.10;99551.22;6115148;23;20011;-96
2024/02/14 11:58:37;;;;;;;;;;;;;;;;;;;;;
2024/02/14 12:01:22;;;;;;;9.38;5.65;;;;;;;9.36;67.92;99548.69;6024330;23;20023;-95
2024/02/14 12:08:09;;;;;;;6.40;4.65;;;;;;;9.54;66.55;99573.53;5890832;24;20053;-96
2024/02/14 12:10:49;;;;;;;7.00;4.78;;;;;;;9.25;65.43;99542.38;5880938;24;20409;-95
2024/02/14 12:13:17;;;;;;;8.38;5.68;;;;;;;9.29;65.53;99564.19;5907428;24;20437;-96
2024/02/14 12:16:46;;;;;;;7.00;4.60;;;;;;;9.06;66.35;99571.50;5913554;24;20009;-96
2024/02/14 12:19:23;;;;;;;7.40;4.22;;;;;;;8.96;66.11;99557.16;5936489;24;20009;-96
2024/02/14 12:21:54;;;;;;;16.27;5.43;;;;;;;8.99;65.74;99565.53;5930019;24;20017;-96
2024/02/14 12:24:20;;;;;;;11.00;6.20;;;;;;;8.98;65.88;99553.16;5927135;23;20003;-95
2024/02/14 12:26:52;;;;;;;13.43;5.75;;;;;;;9.06;65.28;99558.06;5990897;23;20003;-93
2024/02/14 12:29:25;;;;;;;12.20;5.50;;;;;;;9.14;65.36;99574.81;5994062;23;20532;-95
2024/02/14 12:31:50;;;;;;;7.88;4.60;;;;;;;9.10;65.01;99564.56;5996451;23;20007;-96
2024/02/14 12:34:18;;;;;;;7.10;4.50;;;;;;;9.03;67.57;99545.16;5994524;23;20090;-94
2024/02/14 12:36:43;;;;;;;5.28;3.53;;;;;;;8.94;66.53;99551.22;5992909;23;20419;-96
2024/02/14 12:39:12;;;;;;;7.90;3.83;;;;;;;9.00;67.40;99556.38;5992956;23;20062;-93
2024/02/14 12:41:40;;;;;;;6.25;4.28;;;;;;;9.03;67.62;99553.22;6055969;23;20037;-91
2024/02/14 12:44:07;;;;;;;6.95;3.88;;;;;;;9.18;67.38;99555.22;6054364;23;20006;-96
2024/02/14 12:50:01;;;;;;;6.32;3.67;;;;;;;9.26;65.39;99551.28;6107008;23;20056;-96
2024/02/14 12:52:27;;;;;;;5.65;3.65;;;;;;;9.22;65.35;99550.97;6174336;22;20028;-94
2024/02/14 12:57:28;;;;;;;5.78;4.03;;;;;;;9.26;66.05;99560.13;6178957;22;20276;-96
2024/02/14 13:00:03;;;;;;;7.47;3.70;;;;;;;9.23;64.47;99547.19;6175292;23;20017;-95
2024/02/14 13:32:09;;;;;;;9.38;4.95;;;;;;;9.23;64.51;99610.88;6232515;22;20024;-96
2024/02/14 13:34:56;;;;;;;7.82;4.95;;;;;;;9.18;64.33;99592.03;6229752;23;20012;-96
2024/02/14 13:40:04;;;;;;;8.63;5.45;;;;;;;9.22;65.72;99607.38;6230914;22;20360;-96
2024/02/14 13:42:43;;;;;;;14.27;10.60;;;;;;;8.97;64.96;99574.91;6159260;23;20001;-96
2024/02/14 13:48:31;;;;;;;15.13;10.32;;;;;;;9.24;64.51;99581.09;6183871;23;20016;-96
2024/02/14 13:51:51;;;;;;;;;;;;;;;;;;;;;
2024/02/14 13:54:24;;;;;;;6.57;4.45;;;;;;;9.24;62.83;99580.28;6107038;22;20020;-96
2024/02/14 13:57:10;;;;;;;8.35;5.88;;;;;;;9.18;62.59;99578.59;6185288;23;19988;-95
2024/02/14 14:06:00;;;;;;;7.50;5.80;;;;;;;9.22;65.30;99609.28;6236699;22;20023;-96
2024/02/14 14:08:40;;;;;;;7.93;5.55;;;;;;;9.05;63.22;99588.69;6185806;23;20028;-96
2024/02/14 14:11:08;;;;;;;7.38;4.90;;;;;;;9.02;62.75;99591.06;6173765;23;20022;-96
2024/02/14 14:13:39;;;;;;;10.43;5.05;;;;;;;9.21;64.07;99607.63;6173880;23;20001;-96
2024/02/14 14:16:05;;;;;;;7.60;4.40;;;;;;;8.99;63.80;99589.69;6175338;23;20000;-96
2024/02/14 14:19:03;;;;;;;;;;;;;;;;;;;;;
2024/02/14 14:21:40;;;;;;;9.77;5.97;;;;;;;9.04;62.72;99602.38;6212879;23;19985;-96
2024/02/14 14:37:06;;;;;;;9.73;6.60;;;;;;;8.95;64.15;99631.53;6205478;22;20343;-96
2024/02/14 14:39:31;;;;;;;7.95;5.32;;;;;;;8.86;63.51;99595.44;6146690;23;20009;-93
2024/02/14 14:42:12;;;;;;;6.82;4.68;;;;;;;8.98;64.38;99614.13;6170306;23;19996;-96
2024/02/14 14:44:57;;;;;;;6.47;5.10;;;;;;;8.93;64.29;99603.31;6172737;23;20076;-96
2024/02/14 14:57:45;;;;;;;14.60;10.07;;;;;;;9.18;64.16;99630.44;6218265;22;20024;-96
2024/02/14 15:00:11;;;;;;;10.05;6.20;;;;;;;9.15;63.36;99636.34;6169627;23;20487;-93
2024/02/14 15:02:40;;;;;;;10.85;6.40;;;;;;;8.93;63.53;99622.13;6165611;23;20007;-93
2024/02/14 15:05:16;;;;;;;9.60;7.15;;;;;;;9.05;63.78;99630.84;6165378;23;20010;-93
2024/02/14 15:07:41;;;;;;;10.10;7.22;;;;;;;9.00;62.97;99628.91;6166024;23;20089;-94
2024/02/14 15:10:32;;;;;;;9.02;6.28;;;;;;;8.92;64.93;99612.44;6167082;23;20009;-96
2024/02/14 15:13:03;;;;;;;10.38;6.47;;;;;;;8.90;64.57;99616.19;6171859;23;20019;-96
2024/02/14 15:15:33;;;;;;;11.55;6.35;;;;;;;9.14;65.36;99641.97;6173682;23;20000;-94
2024/02/14 15:34:34;;;;;;;11.35;6.68;;;;;;;9.02;63.96;99632.16;6195468;22;20452;-94
2024/02/14 15:37:00;;;;;;;12.80;7.45;;;;;;;8.99;63.53;99626.50;6114664;23;20008;-96
2024/02/14 15:39:26;;;;;;;11.85;7.93;;;;;;;8.95;63.57;99644.16;6117694;23;20063;-95
2024/02/14 15:41:54;;;;;;;14.23;8.25;;;;;;;9.03;62.87;99652.59;6115326;23;20009;-96
2024/02/14 15:44:20;;;;;;;12.73;8.25;;;;;;;8.88;63.59;99637.13;6117793;23;20428;-96
2024/02/14 15:47:00;;;;;;;12.10;7.20;;;;;;;8.87;64.34;99646.22;6117770;23;20032;-96
2024/02/14 15:49:56;;;;;;;8.90;5.93;;;;;;;8.85;62.77;99645.66;6121956;23;20013;-96
2024/02/14 15:52:21;;;;;;;11.25;6.60;;;;;;;8.87;63.51;99651.59;6178707;23;20005;-95
2024/02/14 15:54:47;;;;;;;10.43;6.97;;;;;;;9.02;63.45;99679.69;6118307;23;20025;-93
2024/02/14 15:57:13;;;;;;;11.15;6.40;;;;;;;8.99;63.66;99664.91;6113848;23;20024;-93
2024/02/14 16:02:24;;;;;;;11.50;7.22;;;;;;;8.84;63.62;99651.28;6124030;23;20012;-94
2024/02/14 16:04:50;;;;;;;14.27;8.85;;;;;;;8.86;63.97;99660.72;6114746;23;20000;-94
2024/02/14 16:07:15;;;;;;;10.00;6.45;;;;;;;8.94;63.64;99677.44;6115470;23;20008;-94
2024/02/14 16:09:46;;;;;;;14.32;8.65;;;;;;;8.97;63.56;99698.44;6112848;23;20016;-95
2024/02/14 16:12:14;;;;;;;14.35;8.77;;;;;;;8.86;63.53;99701.00;6116964;23;20511;-96
2024/02/14 16:14:41;;;;;;;19.25;9.30;;;;;;;8.79;63.79;99680.75;6115578;23;20000;-94
2024/02/14 16:17:07;;;;;;;23.48;12.15;;;;;;;8.86;64.03;99678.69;6114986;23;20001;-94
2024/02/14 16:19:33;;;;;;;18.77;11.23;;;;;;;8.90;64.16;99687.88;6114737;23;19993;-95
2024/02/14 16:22:00;;;;;;;13.02;8.13;;;;;;;8.83;65.11;99688.06;6114072;23;20004;-96
2024/02/14 16:24:26;;;;;;;19.20;8.25;;;;;;;8.84;65.13;99688.84;6116279;23;20028;-95
2024/02/14 16:26:51;;;;;;;12.98;8.77;;;;;;;8.95;65.15;99708.63;6118939;23;20012;-96
2024/02/14 16:29:17;;;;;;;16.25;8.30;;;;;;;9.00;65.00;99716.72;6128451;23;20005;-94
2024/02/14 16:32:00;;;;;;;11.50;7.93;;;;;;;8.77;65.57;99688.25;6122066;23;20005;-96
2024/02/14 16:34:34;;;;;;;13.93;8.02;;;;;;;8.84;64.65;99726.44;6152464;23;20028;-96
2024/02/14 16:37:24;;;;;;;12.68;8.13;;;;;;;8.70;64.41;99705.34;6124125;23;20016;-96
2024/02/14 16:42:46;;;;;;;13.45;8.15;;;;;;;8.60;65.13;99715.94;6219828;22;20034;-95
2024/02/14 16:45:36;;;;;;;13.80;8.80;;;;;;;8.53;66.50;99701.06;6202426;23;20008;-96
2024/02/14 16:48:16;;;;;;;14.68;9.38;;;;;;;8.59;66.21;99714.31;6205002;23;20007;-96
2024/02/14 16:50:53;;;;;;;16.30;9.60;;;;;;;8.59;65.55;99718.84;6179138;23;20012;-96
2024/02/14 16:53:22;;;;;;;18.90;10.35;;;;;;;8.56;67.40;99719.38;6178194;23;20027;-96
2024/02/14 16:55:48;;;;;;;17.30;10.60;;;;;;;8.63;67.68;99741.47;6177340;23;19997;-96
2024/02/14 17:01:59;;;;;;;17.95;10.23;;;;;;;8.57;67.45;99713.75;6111154;23;20001;-96
2024/02/14 17:04:28;;;;;;;25.15;12.30;;;;;;;8.50;67.46;99715.78;6134956;23;20087;-96
2024/02/14 17:06:54;;;;;;;21.42;11.68;;;;;;;8.41;68.17;99720.75;6110536;23;20002;-96
2024/02/14 17:09:25;;;;;;;20.95;11.60;;;;;;;8.40;68.00;99716.41;6109948;23;20017;-96
2024/02/14 17:14:56;;;;;;;21.65;10.80;;;;;;;8.63;68.04;99744.16;6128549;23;20009;-96
2024/02/14 17:17:30;;;;;;;18.80;9.95;;;;;;;8.47;68.14;99722.47;6096330;23;20006;-96
2024/02/14 17:20:01;;;;;;;15.10;8.82;;;;;;;8.42;67.76;99729.63;6141196;23;19984;-96
2024/02/14 17:22:34;;;;;;;17.17;9.73;;;;;;;8.25;67.83;99726.91;6090980;23;20006;-96
2024/02/14 17:25:02;;;;;;;21.83;11.68;;;;;;;8.28;68.10;99731.81;6095946;23;20006;-96
2024/02/14 17:27:51;;;;;;;16.40;10.25;;;;;;;8.33;67.77;99737.25;6112148;23;20005;-96
2024/02/14 17:30:34;;;;;;;18.45;12.45;;;;;;;8.32;67.13;99727.56;6163031;22;20024;-96